Time;durP1;ratioP1;P1;durP2;ratioP2;P2;SDS_P1;SDS_P2;PMS_P1;PMS_P2;Temp;Humidity;BMP_temperature;BMP_pressure;BME280_temperature;BME280_humidity;BME280_pressure;Samples;Min_cycle;Max_cycle;Signal;HPM_P1;HPM_P2
2023/09/13 00:00:58;;;;;;;24.87;11.60;;;;;;;18.71;100.00;99461.75;12202203;19;20461;-82
2023/09/13 00:05:00;;;;;;;25.90;11.70;;;;;;;18.69;100.00;99467.66;12197813;19;20014;-82
2023/09/13 00:09:03;;;;;;;28.03;13.03;;;;;;;18.69;100.00;99476.03;12179561;19;20062;-82
2023/09/13 00:13:05;;;;;;;28.98;12.50;;;;;;;18.71;100.00;99472.91;12206411;19;20014;-83
2023/09/13 00:17:07;;;;;;;23.27;11.32;;;;;;;18.67;100.00;99476.34;12203512;19;20011;-82
2023/09/13 00:21:10;;;;;;;29.92;13.32;;;;;;;18.64;100.00;99479.75;12178292;19;21051;-81
2023/09/13 00:25:12;;;;;;;29.10;12.27;;;;;;;18.63;100.00;99475.31;12198091;19;20018;-82
2023/09/13 00:29:17;;;;;;;30.80;12.87;;;;;;;18.66;100.00;99473.88;12201999;19;20006;-81
2023/09/13 00:33:19;;;;;;;27.63;12.85;;;;;;;18.67;100.00;99481.09;12185155;19;20010;-81
2023/09/13 00:37:21;;;;;;;27.10;13.07;;;;;;;18.68;100.00;99491.16;12214643;19;20011;-83
2023/09/13 00:41:23;;;;;;;28.37;13.33;;;;;;;18.74;100.00;99478.75;12207027;19;20014;-82
2023/09/13 00:45:26;;;;;;;29.58;13.85;;;;;;;18.81;100.00;99487.53;12184214;19;20509;-83
2023/09/13 00:49:27;;;;;;;31.88;14.35;;;;;;;18.90;100.00;99482.84;12198897;19;20014;-82
2023/09/13 00:53:31;;;;;;;33.00;14.87;;;;;;;18.98;100.00;99484.09;12211235;19;20007;-81
2023/09/13 00:57:34;;;;;;;35.85;15.32;;;;;;;19.04;100.00;99484.81;12186643;19;20026;-82
2023/09/13 01:01:35;;;;;;;32.38;14.43;;;;;;;19.09;100.00;99485.50;12206189;19;20018;-81
2023/09/13 01:05:37;;;;;;;30.60;14.03;;;;;;;19.15;100.00;99485.38;12186345;19;19999;-83
2023/09/13 01:09:39;;;;;;;31.13;14.52;;;;;;;19.19;100.00;99492.81;12200974;19;20253;-81
2023/09/13 01:13:41;;;;;;;32.13;15.23;;;;;;;19.24;100.00;99500.25;12208931;19;20003;-84
2023/09/13 01:17:52;;;;;;;29.55;14.13;;;;;;;19.25;100.00;99504.72;12181446;19;20010;-81
2023/09/13 01:22:11;;;;;;;35.85;14.77;;;;;;;19.20;100.00;99504.81;12199871;19;20022;-83
2023/09/13 01:26:38;;;;;;;29.00;13.27;;;;;;;19.11;100.00;99510.31;12211191;19;20039;-81
2023/09/13 01:30:41;;;;;;;22.52;11.30;;;;;;;19.04;100.00;99513.56;12194367;19;20010;-83
2023/09/13 01:34:43;;;;;;;17.60;10.85;;;;;;;18.95;100.00;99526.59;12206077;19;21430;-82
2023/09/13 01:38:45;;;;;;;27.27;12.50;;;;;;;18.87;100.00;99524.53;12187184;19;20023;-82
2023/09/13 01:42:48;;;;;;;28.48;13.27;;;;;;;18.85;100.00;99524.84;12214895;19;20672;-82
2023/09/13 01:46:52;;;;;;;30.70;13.65;;;;;;;18.81;100.00;99529.41;12210181;19;20010;-82
2023/09/13 01:50:55;;;;;;;29.63;13.10;;;;;;;18.70;100.00;99527.91;12192757;19;20021;-83
2023/09/13 01:54:57;;;;;;;21.40;11.88;;;;;;;18.65;100.00;99533.63;12214061;19;20017;-81
2023/09/13 01:59:00;;;;;;;28.08;12.45;;;;;;;18.61;100.00;99547.34;12211053;19;20023;-82
2023/09/13 02:03:02;;;;;;;20.52;10.85;;;;;;;18.61;100.00;99538.16;12189432;19;20469;-82
2023/09/13 02:07:04;;;;;;;25.10;12.43;;;;;;;18.59;100.00;99544.06;12208892;19;20014;-82
2023/09/13 02:11:06;;;;;;;23.48;11.65;;;;;;;18.58;100.00;99552.72;12211098;19;20782;-82
2023/09/13 02:15:09;;;;;;;28.30;11.50;;;;;;;18.51;100.00;99539.19;12189588;19;20002;-83
2023/09/13 02:19:11;;;;;;;18.38;10.48;;;;;;;18.47;100.00;99545.69;12209431;19;20006;-83
2023/09/13 02:23:13;;;;;;;22.30;11.30;;;;;;;18.44;100.00;99555.50;12205979;19;20007;-81
2023/09/13 02:27:14;;;;;;;20.73;10.32;;;;;;;18.42;100.00;99557.78;12186973;19;20368;-82
2023/09/13 02:31:23;;;;;;;24.77;11.68;;;;;;;18.41;100.00;99559.75;12208188;19;20547;-82
2023/09/13 02:35:26;;;;;;;24.33;11.27;;;;;;;18.39;100.00;99552.81;12208011;19;20354;-81
2023/09/13 02:39:31;;;;;;;22.48;11.23;;;;;;;18.37;100.00;99532.78;12188140;19;20003;-82
2023/09/13 02:43:33;;;;;;;23.67;11.13;;;;;;;18.37;100.00;99532.78;12208732;19;20014;-83
2023/09/13 02:47:35;;;;;;;22.60;11.87;;;;;;;18.34;100.00;99533.38;12209012;19;20022;-81
2023/09/13 02:51:37;;;;;;;21.53;11.10;;;;;;;18.31;100.00;99542.38;12193593;19;20011;-83
2023/09/13 02:55:39;;;;;;;23.83;11.87;;;;;;;18.26;100.00;99542.47;12219402;19;20091;-83
2023/09/13 02:59:40;;;;;;;27.70;12.57;;;;;;;18.28;100.00;99545.78;12192880;19;20274;-83
2023/09/13 03:03:42;;;;;;;33.13;12.60;;;;;;;18.29;100.00;99542.66;12220455;19;20066;-82
2023/09/13 03:07:46;;;;;;;28.70;12.57;;;;;;;18.30;100.00;99532.38;12220109;19;20011;-82
2023/09/13 03:11:48;;;;;;;27.70;12.63;;;;;;;18.29;100.00;99531.50;12200505;19;20011;-83
2023/09/13 03:15:49;;;;;;;30.05;13.63;;;;;;;18.28;100.00;99535.44;12223901;19;20007;-82
2023/09/13 03:19:52;;;;;;;24.80;12.52;;;;;;;18.26;100.00;99534.91;12220262;19;20011;-82
2023/09/13 03:23:54;;;;;;;30.50;12.63;;;;;;;18.24;100.00;99530.81;12197980;19;20018;-83
2023/09/13 03:27:57;;;;;;;;;;;;;;;18.15;100.00;99533.47;12220507;19;20002;-83
2023/09/13 03:31:59;;;;;;;27.42;13.00;;;;;;;18.17;100.00;99537.63;12224749;19;19911;-82
2023/09/13 03:36:02;;;;;;;32.13;14.52;;;;;;;18.24;100.00;99536.38;12186314;19;20493;-80
2023/09/13 03:40:05;;;;;;;;;;;;;;;18.17;100.00;99536.75;12201516;19;20009;-82
2023/09/13 03:44:08;;;;;;;30.42;13.73;;;;;;;18.21;100.00;99540.59;12200091;19;19926;-82
2023/09/13 03:48:10;;;;;;;32.00;14.23;;;;;;;18.21;100.00;99558.16;12178833;19;20389;-82
2023/09/13 03:52:11;;;;;;;26.80;12.75;;;;;;;18.17;100.00;99557.13;12209387;19;20017;-84
2023/09/13 03:56:13;;;;;;;30.40;14.47;;;;;;;18.23;100.00;99555.06;12201872;19;20015;-82
2023/09/13 04:00:16;;;;;;;31.67;13.93;;;;;;;18.24;100.00;99558.69;12179740;19;20774;-82
2023/09/13 04:04:18;;;;;;;28.15;14.50;;;;;;;18.25;100.00;99557.53;12201454;19;20014;-83
2023/09/13 04:08:20;;;;;;;27.60;13.30;;;;;;;18.18;100.00;99558.78;12202710;19;20014;-81
2023/09/13 04:12:21;;;;;;;28.37;13.30;;;;;;;18.15;100.00;99567.75;12185052;19;20438;-83
2023/09/13 04:16:23;;;;;;;27.35;14.35;;;;;;;18.13;100.00;99561.66;12204950;19;20023;-82
2023/09/13 04:20:25;;;;;;;30.70;16.15;;;;;;;18.16;100.00;99563.81;12204384;19;20086;-81
2023/09/13 04:24:27;;;;;;;34.23;15.10;;;;;;;18.21;100.00;99568.50;12180406;19;20015;-82
2023/09/13 04:28:30;;;;;;;38.67;17.30;;;;;;;18.31;100.00;99570.25;12200568;19;20007;-82
2023/09/13 04:32:34;;;;;;;27.80;14.23;;;;;;;18.25;100.00;99566.75;12208478;19;20007;-84
2023/09/13 04:36:36;;;;;;;31.45;14.25;;;;;;;18.21;100.00;99560.94;12180665;19;20022;-82
2023/09/13 04:40:41;;;;;;;31.77;15.73;;;;;;;18.21;100.00;99560.13;12197835;19;20013;-82
2023/09/13 04:44:45;;;;;;;34.70;15.70;;;;;;;18.17;100.00;99561.84;12177693;19;20046;-84
2023/09/13 04:48:47;;;;;;;34.78;15.35;;;;;;;18.09;100.00;99563.41;12199341;19;20007;-83
2023/09/13 04:52:49;;;;;;;29.10;15.50;;;;;;;18.05;100.00;99567.91;12203659;19;20003;-84
2023/09/13 04:56:51;;;;;;;36.00;15.35;;;;;;;18.06;100.00;99582.72;12173621;19;20025;-81
2023/09/13 05:00:53;;;;;;;36.35;16.23;;;;;;;18.04;100.00;99583.00;12197549;19;20134;-82
2023/09/13 05:04:55;;;;;;;38.97;17.43;;;;;;;18.01;100.00;99589.19;12198507;19;20825;-83
2023/09/13 05:08:57;;;;;;;39.03;16.48;;;;;;;18.00;100.00;99593.13;12179858;19;20003;-82
2023/09/13 05:12:59;;;;;;;38.23;17.43;;;;;;;17.96;100.00;99597.63;12204537;19;20010;-83
2023/09/13 05:17:00;;;;;;;36.03;16.58;;;;;;;18.00;100.00;99595.91;12198907;19;20017;-83
2023/09/13 05:21:02;;;;;;;35.78;16.40;;;;;;;18.02;100.00;99602.00;12178743;19;20006;-82
2023/09/13 05:25:05;;;;;;;44.05;16.30;;;;;;;18.05;100.00;99601.38;12199536;19;20014;-83
2023/09/13 05:29:07;;;;;;;43.67;17.52;;;;;;;18.13;100.00;99606.25;12199384;19;20010;-83
2023/09/13 05:33:08;;;;;;;34.75;16.23;;;;;;;18.30;100.00;99611.28;12177395;19;20035;-83
2023/09/13 05:37:10;;;;;;;24.83;13.32;;;;;;;18.43;100.00;99618.00;12187548;19;20011;-83
2023/09/13 05:41:12;;;;;;;34.30;16.15;;;;;;;18.56;100.00;99621.97;12170205;19;20037;-84
2023/09/13 05:45:14;;;;;;;36.88;17.10;;;;;;;18.71;100.00;99626.41;12183315;19;20016;-83
2023/09/13 05:49:17;;;;;;;36.23;15.07;;;;;;;18.88;100.00;99609.94;12201701;19;20007;-84
2023/09/13 05:53:19;;;;;;;23.60;13.05;;;;;;;19.07;100.00;99623.81;12208069;19;20003;-83
2023/09/13 05:57:21;;;;;;;30.70;14.07;;;;;;;19.13;100.00;99620.59;12179224;19;20010;-82
2023/09/13 06:01:23;;;;;;;24.87;13.07;;;;;;;19.15;100.00;99620.25;12204631;19;20007;-82
2023/09/13 06:05:25;;;;;;;25.60;12.80;;;;;;;19.17;100.00;99623.56;12206306;19;20014;-83
2023/09/13 06:09:27;;;;;;;21.58;12.07;;;;;;;19.19;100.00;99634.44;12186865;19;20003;-83
2023/09/13 06:13:29;;;;;;;30.83;14.25;;;;;;;19.23;100.00;99639.09;12222284;19;20010;-84
2023/09/13 06:17:30;;;;;;;23.40;12.70;;;;;;;19.25;100.00;99642.41;12223993;19;20007;-83
2023/09/13 06:21:33;;;;;;;22.73;12.70;;;;;;;19.30;100.00;99652.63;12202892;19;20010;-84
2023/09/13 06:25:35;;;;;;;22.23;12.03;;;;;;;19.31;100.00;99645.94;12221945;19;20010;-84
2023/09/13 06:29:36;;;;;;;20.13;11.63;;;;;;;19.26;100.00;99660.81;12213409;19;20007;-85
2023/09/13 06:33:38;;;;;;;24.33;12.80;;;;;;;19.25;100.00;99652.75;12195572;19;20010;-82
2023/09/13 06:37:44;;;;;;;23.08;11.18;;;;;;;19.24;100.00;99656.66;12219681;19;20010;-83
2023/09/13 06:41:48;;;;;;;23.15;11.75;;;;;;;19.36;100.00;99662.56;12221660;19;20373;-83
2023/09/13 06:45:50;;;;;;;19.57;12.40;;;;;;;19.52;100.00;99665.88;12195838;19;20024;-82
2023/09/13 06:50:04;;;;;;;21.50;10.50;;;;;;;19.75;100.00;99667.63;12214086;19;20501;-82
2023/09/13 06:54:07;;;;;;;21.35;11.50;;;;;;;20.06;100.00;99666.88;12186628;19;20484;-82
2023/09/13 06:58:10;;;;;;;14.60;9.52;;;;;;;20.31;100.00;99679.41;12212345;19;20003;-82
2023/09/13 07:02:14;;;;;;;15.00;9.63;;;;;;;20.65;100.00;99689.25;12211310;19;20018;-82
2023/09/13 07:06:33;;;;;;;10.73;7.85;;;;;;;20.98;100.00;99697.31;12187531;19;20086;-82
2023/09/13 07:10:35;;;;;;;15.27;8.80;;;;;;;21.29;100.00;99691.69;12210413;19;20094;-83
2023/09/13 07:14:36;;;;;;;14.53;8.20;;;;;;;21.49;100.00;99701.50;12208365;19;20030;-82
2023/09/13 07:18:38;;;;;;;14.70;8.07;;;;;;;21.51;100.00;99702.03;12190230;19;20072;-81
2023/09/13 07:22:40;;;;;;;13.63;8.45;;;;;;;21.58;100.00;99700.38;12210838;19;20010;-82
2023/09/13 07:26:42;;;;;;;13.77;8.37;;;;;;;21.75;100.00;99710.81;12212261;19;20033;-82
2023/09/13 07:30:44;;;;;;;11.60;7.33;;;;;;;21.90;100.00;99712.31;12220551;19;20010;-83
2023/09/13 07:34:45;;;;;;;13.10;7.83;;;;;;;22.05;100.00;99720.25;12248649;19;20006;-83
2023/09/13 07:38:47;;;;;;;12.80;7.22;;;;;;;22.24;100.00;99714.34;12239546;19;20006;-84
2023/09/13 07:42:49;;;;;;;10.53;7.03;;;;;;;22.30;100.00;99718.63;12199294;19;20360;-83
2023/09/13 07:46:51;;;;;;;10.20;7.37;;;;;;;22.56;100.00;99717.78;12206041;19;20020;-82
2023/09/13 07:50:53;;;;;;;12.40;7.30;;;;;;;22.79;100.00;99723.22;12206331;19;20014;-82
2023/09/13 07:54:54;;;;;;;8.33;6.33;;;;;;;23.05;100.00;99726.78;12178621;19;20006;-83
2023/09/13 07:58:56;;;;;;;9.73;7.20;;;;;;;23.07;100.00;99738.53;12200908;19;20627;-82
2023/09/13 08:03:03;;;;;;;9.35;6.60;;;;;;;22.89;100.00;99743.34;12183003;19;20014;-82
2023/09/13 08:07:04;;;;;;;11.05;7.70;;;;;;;22.95;100.00;99744.03;12200554;19;20015;-82
2023/09/13 08:11:06;;;;;;;9.93;6.70;;;;;;;23.09;100.00;99753.09;12202899;19;19999;-81
2023/09/13 08:15:08;;;;;;;12.38;7.03;;;;;;;23.24;100.00;99756.53;12177222;19;20014;-81
2023/09/13 08:19:11;;;;;;;10.50;7.22;;;;;;;23.31;100.00;99759.63;12200323;19;20639;-81
2023/09/13 08:23:12;;;;;;;9.82;6.55;;;;;;;23.58;100.00;99758.34;12198970;19;19999;-83
2023/09/13 08:27:14;;;;;;;10.38;7.05;;;;;;;23.78;100.00;99765.25;12180249;19;20009;-82
2023/09/13 08:31:17;;;;;;;11.00;7.22;;;;;;;23.87;100.00;99772.47;12199304;19;20022;-82
2023/09/13 08:35:19;;;;;;;9.65;6.45;;;;;;;23.93;100.00;99780.72;12206506;19;20390;-81
2023/09/13 08:39:24;;;;;;;10.37;7.07;;;;;;;23.88;100.00;99779.75;12186401;19;20022;-82
2023/09/13 08:43:30;;;;;;;10.63;7.22;;;;;;;23.69;100.00;99781.31;12201319;19;20094;-83
2023/09/13 08:47:36;;;;;;;11.15;6.88;;;;;;;23.41;100.00;99793.00;12198952;19;20115;-81
2023/09/13 08:51:58;;;;;;;9.60;6.30;;;;;;;23.31;100.00;99798.97;12177872;19;20010;-82
2023/09/13 08:56:01;;;;;;;;;;;;;;;23.56;100.00;99800.91;12196955;19;20759;-83
2023/09/13 09:00:07;;;;;;;7.90;5.60;;;;;;;23.88;100.00;99795.78;12179574;19;19910;-82
2023/09/13 09:04:11;;;;;;;9.55;6.32;;;;;;;23.77;100.00;99800.19;12199697;19;20325;-82
2023/09/13 09:08:13;;;;;;;10.35;6.88;;;;;;;23.52;100.00;99808.34;12200070;19;20038;-82
2023/09/13 09:12:20;;;;;;;9.70;6.25;;;;;;;23.22;100.00;99815.88;12178143;19;20007;-83
2023/09/13 09:16:23;;;;;;;9.43;5.95;;;;;;;23.10;100.00;99807.31;12195840;19;20007;-84
2023/09/13 09:20:28;;;;;;;9.45;6.25;;;;;;;23.20;100.00;99809.75;12196759;19;20014;-84
2023/09/13 09:24:32;;;;;;;11.85;5.57;;;;;;;23.35;100.00;99802.78;12174724;19;20035;-83
2023/09/13 09:28:34;;;;;;;11.07;6.22;;;;;;;23.37;100.00;99800.44;12198804;19;20042;-82
2023/09/13 09:32:43;;;;;;;13.38;6.43;;;;;;;23.43;100.00;99807.53;12197608;19;20011;-84
2023/09/13 09:36:46;;;;;;;14.30;7.05;;;;;;;23.45;100.00;99802.41;12175720;19;20031;-83
2023/09/13 09:40:49;;;;;;;;;;;;;;;23.69;100.00;99815.06;12197293;19;20145;-82
2023/09/13 09:44:52;;;;;;;10.88;6.78;;;;;;;24.29;100.00;99800.66;12201268;19;19918;-83
2023/09/13 09:48:54;;;;;;;;;;;;;;;24.11;100.00;99805.59;12193518;19;20014;-82
2023/09/13 09:52:56;;;;;;;13.07;6.83;;;;;;;23.60;100.00;99801.84;12214592;19;19968;-82
2023/09/13 09:56:58;;;;;;;10.30;6.43;;;;;;;23.22;100.00;99812.25;12194895;19;20023;-83
2023/09/13 10:01:02;;;;;;;9.85;5.97;;;;;;;23.07;100.00;99824.84;12213637;19;20006;-82
2023/09/13 10:05:05;;;;;;;11.70;7.50;;;;;;;23.17;100.00;99830.09;12211129;19;20013;-83
2023/09/13 10:09:07;;;;;;;9.50;6.03;;;;;;;23.92;100.00;99824.09;12189762;19;20014;-83
2023/09/13 10:13:13;;;;;;;7.23;4.97;;;;;;;24.72;100.00;99822.09;12219709;19;21841;-82
2023/09/13 10:17:18;;;;;;;7.38;5.43;;;;;;;24.90;100.00;99814.31;12216779;19;20035;-84
2023/09/13 10:21:29;;;;;;;7.57;4.78;;;;;;;24.97;100.00;99825.00;12192010;19;20007;-84
2023/09/13 10:25:33;;;;;;;6.80;4.53;;;;;;;25.49;93.95;99818.00;12210383;19;20086;-83
2023/09/13 10:29:39;;;;;;;8.50;5.10;;;;;;;26.19;88.16;99818.78;12210585;19;20002;-83
2023/09/13 10:33:52;;;;;;;7.72;5.43;;;;;;;26.74;80.34;99820.13;12191623;19;20010;-84
2023/09/13 10:38:08;;;;;;;;;;;;;;;27.25;81.71;99823.22;12212713;19;20416;-83
2023/09/13 10:42:11;;;;;;;5.60;4.47;;;;;;;26.98;78.15;99824.00;12190840;19;19919;-83
2023/09/13 10:46:14;;;;;;;9.73;4.25;;;;;;;26.53;76.54;99822.28;12211312;19;20035;-84
2023/09/13 10:50:17;;;;;;;6.45;4.35;;;;;;;26.07;81.72;99824.44;12210323;19;20034;-84
2023/09/13 10:54:20;;;;;;;6.50;4.38;;;;;;;25.67;85.10;99825.94;12184376;19;20018;-84
2023/09/13 10:58:22;;;;;;;6.80;3.83;;;;;;;25.57;83.67;99825.56;12209079;19;20129;-84
2023/09/13 11:02:26;;;;;;;4.50;2.97;;;;;;;25.31;81.60;99826.66;12212050;19;20028;-84
2023/09/13 11:06:28;;;;;;;4.60;3.95;;;;;;;25.38;81.04;99828.94;12192419;19;20011;-85
2023/09/13 11:10:32;;;;;;;6.85;4.57;;;;;;;25.39;79.49;99820.13;12208161;19;20488;-85
2023/09/13 11:14:47;;;;;;;7.07;3.95;;;;;;;25.37;80.45;99827.28;12210130;19;20029;-86
2023/09/13 11:18:51;;;;;;;7.20;3.60;;;;;;;25.64;80.12;99832.28;12192396;19;20007;-84
2023/09/13 11:23:19;;;;;;;6.95;3.97;;;;;;;26.13;79.11;99828.69;12216272;19;20393;-85
2023/09/13 11:27:35;;;;;;;5.50;3.70;;;;;;;26.89;75.94;99827.00;12190892;19;20010;-84
2023/09/13 11:31:56;;;;;;;6.18;3.60;;;;;;;27.16;72.68;99828.22;12210726;19;20015;-83
2023/09/13 11:36:02;;;;;;;6.22;4.13;;;;;;;26.98;73.53;99833.34;12187536;19;20014;-83
2023/09/13 11:40:10;;;;;;;;;;;;;;;26.98;73.09;99830.50;12217695;19;20023;-84
2023/09/13 11:44:13;;;;;;;5.55;3.35;;;;;;;26.73;72.20;99835.41;12215773;19;20284;-83
2023/09/13 11:48:39;;;;;;;4.35;2.97;;;;;;;26.34;72.88;99837.81;12191823;19;20067;-85
2023/09/13 11:53:16;;;;;;;5.13;3.65;;;;;;;26.27;72.82;99843.25;12217432;19;20136;-83
2023/09/13 11:57:21;;;;;;;7.50;4.28;;;;;;;26.06;73.98;99846.22;12188523;19;20038;-83
2023/09/13 12:01:28;;;;;;;7.15;4.60;;;;;;;26.09;75.72;99842.69;12213354;19;20046;-84
2023/09/13 12:05:32;;;;;;;6.18;4.25;;;;;;;26.08;72.72;99848.66;12207837;19;20030;-83
2023/09/13 12:09:55;;;;;;;5.82;4.18;;;;;;;26.12;75.15;99850.44;12185363;19;20014;-83
2023/09/13 12:14:01;;;;;;;7.20;3.55;;;;;;;26.39;73.33;99844.44;12210668;19;20102;-83
2023/09/13 12:18:16;;;;;;;4.55;3.78;;;;;;;26.47;72.08;99851.94;12190943;19;20014;-85
2023/09/13 12:22:22;;;;;;;6.43;3.47;;;;;;;26.56;71.93;99847.00;12206652;19;20021;-84
2023/09/13 12:26:25;;;;;;;5.13;3.28;;;;;;;26.73;72.21;99849.53;12209774;19;20382;-84
2023/09/13 12:30:27;;;;;;;10.45;3.25;;;;;;;26.82;69.13;99849.41;12186891;19;20389;-84
2023/09/13 12:34:29;;;;;;;7.80;3.25;;;;;;;27.36;68.57;99845.31;12201620;19;20018;-84
2023/09/13 12:38:31;;;;;;;;;;;;;;;28.15;64.81;99842.53;12212576;19;20003;-84
2023/09/13 12:42:37;;;;;;;6.97;3.05;;;;;;;28.41;60.00;99847.66;12181329;19;19924;-85
2023/09/13 12:46:45;;;;;;;5.18;3.30;;;;;;;28.25;61.92;99843.97;12210087;19;20465;-85
2023/09/13 12:51:01;;;;;;;5.40;2.72;;;;;;;28.13;61.73;99836.41;12189651;19;20014;-85
2023/09/13 12:55:07;;;;;;;3.92;2.80;;;;;;;27.73;63.01;99843.09;12211104;19;20074;-84
2023/09/13 12:59:09;;;;;;;6.95;3.13;;;;;;;27.46;64.39;99839.13;12208095;19;20014;-85
2023/09/13 13:03:14;;;;;;;7.05;3.03;;;;;;;27.44;63.07;99838.66;12187746;19;20007;-85
2023/09/13 13:07:33;;;;;;;3.95;3.08;;;;;;;27.83;61.70;99836.88;12208411;19;20538;-85
2023/09/13 13:11:45;;;;;;;4.32;2.95;;;;;;;28.07;61.14;99833.03;12211078;19;20010;-85
2023/09/13 13:15:47;;;;;;;7.95;3.60;;;;;;;27.89;63.29;99828.94;12187439;19;20003;-85
2023/09/13 13:20:08;;;;;;;6.18;3.22;;;;;;;27.71;63.16;99837.78;12222221;19;20022;-85
2023/09/13 13:24:15;;;;;;;7.15;3.22;;;;;;;27.65;63.47;99822.25;12219643;19;20022;-83
2023/09/13 13:28:17;;;;;;;;;;;;;;;27.43;64.01;99828.53;12243877;19;20145;-84
2023/09/13 13:32:19;;;;;;;8.35;3.60;;;;;;;27.31;64.86;99828.59;12221269;19;19910;-83
2023/09/13 13:36:21;;;;;;;5.07;3.40;;;;;;;27.55;62.61;99819.16;12195131;19;20014;-84
2023/09/13 13:40:23;;;;;;;8.20;3.60;;;;;;;27.55;62.94;99821.97;12216078;19;20015;-83
2023/09/13 13:44:28;;;;;;;7.55;3.65;;;;;;;27.58;63.37;99826.91;12218903;19;20051;-82
2023/09/13 13:48:32;;;;;;;5.85;3.35;;;;;;;27.18;64.10;99827.84;12195707;19;20030;-84
2023/09/13 13:52:34;;;;;;;6.75;3.50;;;;;;;27.44;63.82;99822.50;12216625;19;20045;-84
2023/09/13 13:56:39;;;;;;;5.25;3.35;;;;;;;27.64;60.85;99820.63;12218457;19;20017;-84
2023/09/13 14:00:40;;;;;;;7.13;3.10;;;;;;;27.32;62.56;99835.91;12192888;19;20390;-84
2023/09/13 14:04:42;;;;;;;5.00;3.17;;;;;;;26.92;61.83;99834.78;12219507;19;20010;-84
2023/09/13 14:08:44;;;;;;;5.65;3.22;;;;;;;26.65;61.47;99825.06;12219274;19;20035;-84
2023/09/13 14:12:46;;;;;;;5.85;3.00;;;;;;;26.50;64.42;99828.63;12204921;19;20030;-85
2023/09/13 14:16:49;;;;;;;4.47;3.03;;;;;;;26.45;64.97;99823.22;12220310;19;20010;-85
2023/09/13 14:20:50;;;;;;;6.95;2.97;;;;;;;26.32;65.35;99817.56;12223527;19;20386;-84
2023/09/13 14:24:52;;;;;;;4.07;2.65;;;;;;;25.99;65.89;99829.03;12193754;19;20024;-84
2023/09/13 14:28:54;;;;;;;8.35;3.55;;;;;;;25.87;66.67;99818.56;12217503;19;19998;-84
2023/09/13 14:33:03;;;;;;;7.05;3.92;;;;;;;25.87;67.33;99824.19;12197817;19;20038;-84
2023/09/13 14:37:08;;;;;;;4.72;3.45;;;;;;;25.65;68.47;99817.00;12212291;19;20030;-84
2023/09/13 14:41:09;;;;;;;6.90;3.55;;;;;;;25.68;68.43;99821.09;12213601;19;20033;-83
2023/09/13 14:45:14;;;;;;;5.68;3.20;;;;;;;25.87;68.40;99818.56;12194410;19;20030;-84
2023/09/13 14:49:19;;;;;;;5.28;3.08;;;;;;;25.72;68.84;99829.69;12213263;19;20010;-84
2023/09/13 14:53:21;;;;;;;8.45;3.65;;;;;;;25.61;69.89;99821.69;12220997;19;20018;-84
2023/09/13 14:57:23;;;;;;;4.80;3.35;;;;;;;25.54;71.22;99821.44;12192578;19;20007;-84
2023/09/13 15:01:25;;;;;;;5.93;3.22;;;;;;;25.61;71.25;99823.66;12209799;19;20011;-83
2023/09/13 15:05:27;;;;;;;6.65;3.65;;;;;;;25.67;71.52;99827.91;12210879;19;20564;-83
2023/09/13 15:09:29;;;;;;;4.05;2.55;;;;;;;25.72;70.82;99833.34;12186342;19;20714;-84
2023/09/13 15:13:30;;;;;;;4.40;3.30;;;;;;;25.81;69.55;99839.69;12216494;19;20010;-85
2023/09/13 15:17:33;;;;;;;5.20;3.05;;;;;;;25.82;66.85;99829.25;12211612;19;20019;-84
2023/09/13 15:21:35;;;;;;;4.32;2.67;;;;;;;26.09;66.88;99830.56;12196519;19;20013;-84
2023/09/13 15:25:40;;;;;;;3.72;2.67;;;;;;;26.17;65.31;99825.97;12237911;19;20066;-84
2023/09/13 15:29:43;;;;;;;5.88;2.83;;;;;;;26.03;65.57;99832.00;12250734;19;20013;-84
2023/09/13 15:33:45;;;;;;;4.90;2.70;;;;;;;25.99;66.59;99831.03;12226033;19;20043;-85
2023/09/13 15:37:47;;;;;;;4.75;2.58;;;;;;;25.88;65.84;99836.34;12248591;19;20053;-84
2023/09/13 15:41:49;;;;;;;5.77;2.53;;;;;;;25.71;66.97;99836.53;12242267;19;20028;-85
2023/09/13 15:45:53;;;;;;;4.20;2.67;;;;;;;25.61;67.35;99824.53;12217302;19;20263;-86
2023/09/13 15:49:55;;;;;;;4.65;2.70;;;;;;;25.59;67.80;99835.31;12238282;19;20014;-85
2023/09/13 15:53:57;;;;;;;4.60;2.85;;;;;;;25.38;68.95;99829.75;12244038;19;20006;-84
2023/09/13 15:58:01;;;;;;;4.75;3.17;;;;;;;25.25;70.79;99836.53;12249448;19;20003;-84
2023/09/13 16:02:06;;;;;;;4.28;2.80;;;;;;;25.05;70.78;99834.56;12246737;19;20025;-85
2023/09/13 16:06:26;;;;;;;3.67;2.50;;;;;;;24.87;70.57;99836.72;12209836;19;20030;-84
2023/09/13 16:10:38;;;;;;;4.85;2.72;;;;;;;24.69;70.21;99833.19;12220012;19;20011;-85
2023/09/13 16:14:40;;;;;;;4.97;2.20;;;;;;;24.53;71.49;99842.28;12227682;19;20604;-85
2023/09/13 16:18:42;;;;;;;8.02;2.53;;;;;;;24.45;71.07;99848.81;12211708;19;20009;-85
2023/09/13 16:22:47;;;;;;;;;;;;;;;24.50;70.69;99844.94;12219977;19;20014;-84
2023/09/13 16:26:49;;;;;;;4.47;2.70;;;;;;;24.55;71.61;99841.94;12217371;19;20630;-85
2023/09/13 16:30:54;;;;;;;5.43;2.50;;;;;;;24.47;71.34;99835.19;12203498;19;20018;-86
2023/09/13 16:34:59;;;;;;;6.57;3.35;;;;;;;24.38;71.17;99842.03;12219934;19;20014;-85
2023/09/13 16:39:02;;;;;;;5.03;2.70;;;;;;;24.30;72.34;99836.13;12191921;19;20018;-85
2023/09/13 16:43:04;;;;;;;5.30;2.50;;;;;;;24.19;73.02;99846.13;12214887;19;20025;-85
2023/09/13 16:47:06;;;;;;;4.47;2.60;;;;;;;24.08;74.38;99848.50;12217547;19;20010;-84
2023/09/13 16:51:08;;;;;;;4.43;2.90;;;;;;;23.94;73.83;99849.91;12209946;19;20263;-84
2023/09/13 16:55:10;;;;;;;5.93;2.75;;;;;;;23.72;75.04;99840.56;12214508;19;20015;-85
2023/09/13 16:59:13;;;;;;;4.27;2.53;;;;;;;23.50;76.99;99852.88;12208986;19;20017;-84
2023/09/13 17:03:15;;;;;;;4.72;2.50;;;;;;;23.36;78.60;99863.47;12180539;19;20017;-83
2023/09/13 17:07:19;;;;;;;5.30;2.80;;;;;;;23.24;78.95;99860.53;12206397;19;20095;-85
2023/09/13 17:11:22;;;;;;;7.27;2.83;;;;;;;23.14;79.89;99864.50;12210132;19;20756;-84
2023/09/13 17:15:24;;;;;;;4.80;2.75;;;;;;;23.01;80.24;99877.56;12186381;19;20010;-83
2023/09/13 17:19:26;;;;;;;4.40;3.03;;;;;;;22.88;81.03;99881.38;12205475;19;20857;-84
2023/09/13 17:23:29;;;;;;;6.13;3.37;;;;;;;22.73;83.08;99888.31;12205353;19;20013;-84
2023/09/13 17:27:31;;;;;;;;;;;;;;;22.57;85.01;99896.34;12181900;19;20031;-85
2023/09/13 17:31:32;;;;;;;9.30;3.55;;;;;;;22.41;89.18;99892.38;12206777;19;19929;-83
2023/09/13 17:35:34;;;;;;;7.77;3.63;;;;;;;22.22;92.70;99901.06;12204032;19;20498;-84
2023/09/13 17:39:36;;;;;;;7.50;3.13;;;;;;;22.01;95.83;99903.59;12179947;19;20493;-84
2023/09/13 17:43:38;;;;;;;8.80;3.17;;;;;;;21.76;96.83;99911.59;12204403;19;20007;-85
2023/09/13 17:47:40;;;;;;;8.13;3.92;;;;;;;21.65;98.20;99904.59;12203651;19;20010;-85
2023/09/13 17:51:42;;;;;;;9.50;3.63;;;;;;;21.54;98.20;99922.84;12183777;19;20018;-84
2023/09/13 17:55:44;;;;;;;7.23;3.30;;;;;;;21.45;97.60;99919.16;12200482;19;20011;-85
2023/09/13 17:59:46;;;;;;;9.63;3.10;;;;;;;21.45;96.44;99927.59;12202747;19;20509;-84
2023/09/13 18:03:47;;;;;;;6.55;3.42;;;;;;;21.48;99.17;99932.53;12175007;19;20358;-84
2023/09/13 18:07:57;;;;;;;5.78;3.10;;;;;;;21.41;99.21;99941.38;12207036;19;20031;-83
2023/09/13 18:11:59;;;;;;;6.18;3.03;;;;;;;21.41;97.17;99940.56;12192951;19;20006;-85
2023/09/13 18:16:01;;;;;;;7.27;3.17;;;;;;;21.47;96.14;99958.91;12214108;19;20014;-84
2023/09/13 18:20:04;;;;;;;6.97;3.35;;;;;;;21.43;96.27;99971.91;12213966;19;20053;-84
2023/09/13 18:24:06;;;;;;;5.35;3.47;;;;;;;21.37;97.47;99971.22;12191508;19;20010;-83
2023/09/13 18:28:13;;;;;;;6.53;3.40;;;;;;;21.30;97.72;99974.44;12213897;19;20042;-86
2023/09/13 18:32:22;;;;;;;5.00;3.45;;;;;;;21.21;98.24;99981.09;12220957;19;20010;-86
2023/09/13 18:36:24;;;;;;;5.65;3.50;;;;;;;21.11;99.22;99983.00;12188191;19;20027;-83
2023/09/13 18:40:28;;;;;;;5.90;3.33;;;;;;;20.98;98.52;99989.47;12223465;19;20028;-86